Terminal Aerodrome Forecast
Issued by NWS Sioux Falls, SD

Home | Current Version | Previous Version | Text Only | Print | Product List | Glossary On
Versions: 1 2 3 4 5 6 7 8 9 10 11 12
000
FTUS43 KFSD 180534
TAFSUX
TAF
KSUX 180534Z 1806/1906 17006KT P6SM SKC
     FM181800 29010KT P6SM FEW250
     FM182100 32011KT P6SM SKC
     FM190100 32003KT P6SM SKC=

USA.gov is the U.S. government's official web portal to all federal, state and local government web resources and services.